sensor_id;sensor_type;location;lat;lon;timestamp;temperature;humidity
8684;DHT22;4379;59.744;18.206;2022-09-03T00:01:45;2.20;99.90
8684;DHT22;4379;59.744;18.206;2022-09-03T00:04:38;2.20;99.90
8684;DHT22;4379;59.744;18.206;2022-09-03T00:10:51;2.10;99.90
8684;DHT22;4379;59.744;18.206;2022-09-03T00:13:36;2.00;99.90
8684;DHT22;4379;59.744;18.206;2022-09-03T00:16:08;2.00;99.90
8684;DHT22;4379;59.744;18.206;2022-09-03T00:18:44;2.10;99.90
8684;DHT22;4379;59.744;18.206;2022-09-03T00:21:48;2.00;99.90
8684;DHT22;4379;59.744;18.206;2022-09-03T00:24:20;2.00;99.90
8684;DHT22;4379;59.744;18.206;2022-09-03T00:26:52;2.00;99.90
8684;DHT22;4379;59.744;18.206;2022-09-03T00:29:35;2.10;99.90
8684;DHT22;4379;59.744;18.206;2022-09-03T00:32:17;2.20;99.90
8684;DHT22;4379;59.744;18.206;2022-09-03T00:34:50;2.30;99.90
8684;DHT22;4379;59.744;18.206;2022-09-03T00:37:21;2.10;99.90
8684;DHT22;4379;59.744;18.206;2022-09-03T00:39:49;1.90;99.90
8684;DHT22;4379;59.744;18.206;2022-09-03T00:42:38;2.00;99.90
8684;DHT22;4379;59.744;18.206;2022-09-03T00:51:20;2.30;99.90
8684;DHT22;4379;59.744;18.206;2022-09-03T00:54:04;2.30;99.90
8684;DHT22;4379;59.744;18.206;2022-09-03T00:56:47;2.40;99.90
8684;DHT22;4379;59.744;18.206;2022-09-03T01:14:10;2.50;99.90
8684;DHT22;4379;59.744;18.206;2022-09-03T01:16:58;2.60;99.90
8684;DHT22;4379;59.744;18.206;2022-09-03T01:19:44;2.70;99.90
8684;DHT22;4379;59.744;18.206;2022-09-03T01:22:32;2.60;99.90
8684;DHT22;4379;59.744;18.206;2022-09-03T01:28:18;3.00;99.90
8684;DHT22;4379;59.744;18.206;2022-09-03T01:31:00;3.00;99.90
8684;DHT22;4379;59.744;18.206;2022-09-03T01:34:00;2.90;99.90
8684;DHT22;4379;59.744;18.206;2022-09-03T01:39:50;3.00;99.90
8684;DHT22;4379;59.744;18.206;2022-09-03T01:42:36;3.00;99.90
8684;DHT22;4379;59.744;18.206;2022-09-03T01:51:10;3.10;99.90
8684;DHT22;4379;59.744;18.206;2022-09-03T02:02:43;3.40;99.90
8684;DHT22;4379;59.744;18.206;2022-09-03T02:05:19;3.60;99.90
8684;DHT22;4379;59.744;18.206;2022-09-03T02:08:04;3.70;99.90
8684;DHT22;4379;59.744;18.206;2022-09-03T02:13:20;3.90;99.90
8684;DHT22;4379;59.744;18.206;2022-09-03T02:15:49;3.80;99.90
8684;DHT22;4379;59.744;18.206;2022-09-03T02:18:22;3.70;99.90
8684;DHT22;4379;59.744;18.206;2022-09-03T02:20:57;3.70;99.90
8684;DHT22;4379;59.744;18.206;2022-09-03T02:23:25;3.60;99.90
8684;DHT22;4379;59.744;18.206;2022-09-03T02:26:00;3.50;99.90
8684;DHT22;4379;59.744;18.206;2022-09-03T02:28:29;3.60;99.90
8684;DHT22;4379;59.744;18.206;2022-09-03T02:30:58;3.60;99.90
8684;DHT22;4379;59.744;18.206;2022-09-03T02:33:26;3.80;99.90
8684;DHT22;4379;59.744;18.206;2022-09-03T02:35:54;3.90;99.90
8684;DHT22;4379;59.744;18.206;2022-09-03T02:38:24;4.10;99.90
8684;DHT22;4379;59.744;18.206;2022-09-03T02:40:52;4.10;99.90
8684;DHT22;4379;59.744;18.206;2022-09-03T02:46:23;4.00;99.90
8684;DHT22;4379;59.744;18.206;2022-09-03T02:48:54;4.00;99.90
8684;DHT22;4379;59.744;18.206;2022-09-03T02:51:22;4.10;99.90
8684;DHT22;4379;59.744;18.206;2022-09-03T02:53:50;4.30;99.90
8684;DHT22;4379;59.744;18.206;2022-09-03T02:56:17;4.30;99.90
8684;DHT22;4379;59.744;18.206;2022-09-03T02:58:47;4.40;99.90
8684;DHT22;4379;59.744;18.206;2022-09-03T03:01:15;4.40;99.90
8684;DHT22;4379;59.744;18.206;2022-09-03T03:03:50;4.30;99.90
8684;DHT22;4379;59.744;18.206;2022-09-03T03:06:19;4.10;99.90
8684;DHT22;4379;59.744;18.206;2022-09-03T03:08:48;4.00;99.90
8684;DHT22;4379;59.744;18.206;2022-09-03T03:11:17;4.10;99.90
8684;DHT22;4379;59.744;18.206;2022-09-03T03:13:45;4.40;99.90
8684;DHT22;4379;59.744;18.206;2022-09-03T03:16:14;4.50;99.90
8684;DHT22;4379;59.744;18.206;2022-09-03T03:18:42;4.40;99.90
8684;DHT22;4379;59.744;18.206;2022-09-03T03:21:16;4.20;99.90
8684;DHT22;4379;59.744;18.206;2022-09-03T03:23:44;4.20;99.90
8684;DHT22;4379;59.744;18.206;2022-09-03T03:26:15;4.10;99.90
8684;DHT22;4379;59.744;18.206;2022-09-03T03:28:47;4.10;99.90
8684;DHT22;4379;59.744;18.206;2022-09-03T03:31:18;4.00;99.90
8684;DHT22;4379;59.744;18.206;2022-09-03T03:33:55;4.00;99.90
8684;DHT22;4379;59.744;18.206;2022-09-03T03:36:24;4.00;99.90
8684;DHT22;4379;59.744;18.206;2022-09-03T03:38:54;4.10;99.90
8684;DHT22;4379;59.744;18.206;2022-09-03T03:41:33;4.10;99.90
8684;DHT22;4379;59.744;18.206;2022-09-03T03:44:03;4.00;99.90
8684;DHT22;4379;59.744;18.206;2022-09-03T03:46:32;4.00;99.90
8684;DHT22;4379;59.744;18.206;2022-09-03T03:49:00;4.10;99.90
8684;DHT22;4379;59.744;18.206;2022-09-03T03:51:28;4.10;99.90
8684;DHT22;4379;59.744;18.206;2022-09-03T03:53:57;4.10;99.90
8684;DHT22;4379;59.744;18.206;2022-09-03T03:56:31;4.20;99.90
8684;DHT22;4379;59.744;18.206;2022-09-03T03:58:59;4.40;99.90
8684;DHT22;4379;59.744;18.206;2022-09-03T04:01:27;4.40;99.90
8684;DHT22;4379;59.744;18.206;2022-09-03T04:03:56;4.40;99.90
8684;DHT22;4379;59.744;18.206;2022-09-03T04:06:24;4.30;99.90
8684;DHT22;4379;59.744;18.206;2022-09-03T04:08:52;4.30;99.90
8684;DHT22;4379;59.744;18.206;2022-09-03T04:11:21;4.50;99.90
8684;DHT22;4379;59.744;18.206;2022-09-03T04:13:49;4.70;99.90
8684;DHT22;4379;59.744;18.206;2022-09-03T04:16:24;4.80;99.90
8684;DHT22;4379;59.744;18.206;2022-09-03T04:18:54;4.90;99.90
8684;DHT22;4379;59.744;18.206;2022-09-03T04:21:26;4.90;99.90
8684;DHT22;4379;59.744;18.206;2022-09-03T04:23:55;5.00;99.90
8684;DHT22;4379;59.744;18.206;2022-09-03T04:26:28;4.80;99.90
8684;DHT22;4379;59.744;18.206;2022-09-03T04:29:01;4.70;99.90
8684;DHT22;4379;59.744;18.206;2022-09-03T04:31:29;4.90;99.90
8684;DHT22;4379;59.744;18.206;2022-09-03T04:33:57;4.90;99.90
8684;DHT22;4379;59.744;18.206;2022-09-03T04:36:27;5.00;99.90
8684;DHT22;4379;59.744;18.206;2022-09-03T04:38:57;5.10;99.90
8684;DHT22;4379;59.744;18.206;2022-09-03T04:41:27;5.20;99.90
8684;DHT22;4379;59.744;18.206;2022-09-03T04:43:56;5.20;99.90
8684;DHT22;4379;59.744;18.206;2022-09-03T04:46:26;5.00;99.90
8684;DHT22;4379;59.744;18.206;2022-09-03T04:49:00;5.00;99.90
8684;DHT22;4379;59.744;18.206;2022-09-03T04:51:28;5.00;99.90
8684;DHT22;4379;59.744;18.206;2022-09-03T04:53:59;5.00;99.90
8684;DHT22;4379;59.744;18.206;2022-09-03T04:56:30;5.10;99.90
8684;DHT22;4379;59.744;18.206;2022-09-03T04:59:00;5.10;99.90
8684;DHT22;4379;59.744;18.206;2022-09-03T05:01:30;5.40;99.90
8684;DHT22;4379;59.744;18.206;2022-09-03T05:03:59;5.50;99.90
8684;DHT22;4379;59.744;18.206;2022-09-03T05:06:28;5.60;99.90
8684;DHT22;4379;59.744;18.206;2022-09-03T05:08:56;5.50;99.90
8684;DHT22;4379;59.744;18.206;2022-09-03T05:11:25;5.50;99.90
8684;DHT22;4379;59.744;18.206;2022-09-03T05:13:55;5.30;99.90
8684;DHT22;4379;59.744;18.206;2022-09-03T05:16:23;5.20;99.90
8684;DHT22;4379;59.744;18.206;2022-09-03T05:18:53;5.50;99.90
8684;DHT22;4379;59.744;18.206;2022-09-03T05:21:21;5.70;99.90
8684;DHT22;4379;59.744;18.206;2022-09-03T05:23:49;5.80;99.90
8684;DHT22;4379;59.744;18.206;2022-09-03T05:26:23;5.80;99.90
8684;DHT22;4379;59.744;18.206;2022-09-03T05:28:55;5.80;99.90
8684;DHT22;4379;59.744;18.206;2022-09-03T05:31:24;6.10;99.90
8684;DHT22;4379;59.744;18.206;2022-09-03T05:33:56;6.40;99.90
8684;DHT22;4379;59.744;18.206;2022-09-03T05:36:27;6.60;99.90
8684;DHT22;4379;59.744;18.206;2022-09-03T05:38:54;6.60;99.90
8684;DHT22;4379;59.744;18.206;2022-09-03T05:41:25;6.70;99.90
8684;DHT22;4379;59.744;18.206;2022-09-03T05:43:53;6.70;99.90
8684;DHT22;4379;59.744;18.206;2022-09-03T05:46:24;7.10;99.90
8684;DHT22;4379;59.744;18.206;2022-09-03T05:49:03;7.40;99.90
8684;DHT22;4379;59.744;18.206;2022-09-03T05:51:32;7.70;99.90
8684;DHT22;4379;59.744;18.206;2022-09-03T05:54:00;8.30;99.90
8684;DHT22;4379;59.744;18.206;2022-09-03T05:56:30;8.60;99.90
8684;DHT22;4379;59.744;18.206;2022-09-03T05:59:00;9.00;99.90
8684;DHT22;4379;59.744;18.206;2022-09-03T06:01:36;9.40;99.90
8684;DHT22;4379;59.744;18.206;2022-09-03T06:04:09;9.70;99.90
8684;DHT22;4379;59.744;18.206;2022-09-03T06:06:39;10.00;99.90
8684;DHT22;4379;59.744;18.206;2022-09-03T06:09:16;10.50;99.90
8684;DHT22;4379;59.744;18.206;2022-09-03T06:11:46;10.80;99.90
8684;DHT22;4379;59.744;18.206;2022-09-03T06:14:16;10.60;99.90
8684;DHT22;4379;59.744;18.206;2022-09-03T06:16:45;10.30;99.90
8684;DHT22;4379;59.744;18.206;2022-09-03T06:19:16;10.20;99.90
8684;DHT22;4379;59.744;18.206;2022-09-03T06:21:44;10.20;99.90
8684;DHT22;4379;59.744;18.206;2022-09-03T06:24:17;10.10;99.90
8684;DHT22;4379;59.744;18.206;2022-09-03T06:26:46;10.10;99.90
8684;DHT22;4379;59.744;18.206;2022-09-03T06:29:14;10.00;99.90
8684;DHT22;4379;59.744;18.206;2022-09-03T06:31:42;9.60;99.90
8684;DHT22;4379;59.744;18.206;2022-09-03T06:34:09;9.50;99.90
8684;DHT22;4379;59.744;18.206;2022-09-03T06:36:38;9.60;99.90
8684;DHT22;4379;59.744;18.206;2022-09-03T06:39:07;9.80;99.90
8684;DHT22;4379;59.744;18.206;2022-09-03T06:41:35;9.80;99.90
8684;DHT22;4379;59.744;18.206;2022-09-03T06:44:05;9.90;99.90
8684;DHT22;4379;59.744;18.206;2022-09-03T06:46:39;10.10;99.90
8684;DHT22;4379;59.744;18.206;2022-09-03T06:49:10;9.80;99.90
8684;DHT22;4379;59.744;18.206;2022-09-03T06:51:38;9.60;99.90
8684;DHT22;4379;59.744;18.206;2022-09-03T06:54:07;9.70;99.90
8684;DHT22;4379;59.744;18.206;2022-09-03T06:56:36;9.60;99.90
8684;DHT22;4379;59.744;18.206;2022-09-03T06:59:09;9.90;99.90
8684;DHT22;4379;59.744;18.206;2022-09-03T07:01:37;10.10;99.90
8684;DHT22;4379;59.744;18.206;2022-09-03T07:04:12;10.20;99.90
8684;DHT22;4379;59.744;18.206;2022-09-03T07:06:42;10.30;99.90
8684;DHT22;4379;59.744;18.206;2022-09-03T07:09:11;10.10;99.90
8684;DHT22;4379;59.744;18.206;2022-09-03T07:11:40;10.30;99.90
8684;DHT22;4379;59.744;18.206;2022-09-03T07:14:18;10.40;99.90
8684;DHT22;4379;59.744;18.206;2022-09-03T07:16:47;10.60;99.90
8684;DHT22;4379;59.744;18.206;2022-09-03T07:19:15;10.70;99.90
8684;DHT22;4379;59.744;18.206;2022-09-03T07:21:43;10.90;99.90
8684;DHT22;4379;59.744;18.206;2022-09-03T07:24:17;10.80;99.90
8684;DHT22;4379;59.744;18.206;2022-09-03T07:26:46;10.80;99.90
8684;DHT22;4379;59.744;18.206;2022-09-03T07:29:15;11.20;99.90
8684;DHT22;4379;59.744;18.206;2022-09-03T07:31:47;11.10;99.90
8684;DHT22;4379;59.744;18.206;2022-09-03T07:34:19;11.20;99.90
8684;DHT22;4379;59.744;18.206;2022-09-03T07:36:48;11.20;99.90
8684;DHT22;4379;59.744;18.206;2022-09-03T07:39:18;11.30;99.90
8684;DHT22;4379;59.744;18.206;2022-09-03T07:41:46;11.40;99.90
8684;DHT22;4379;59.744;18.206;2022-09-03T07:44:15;11.50;99.90
8684;DHT22;4379;59.744;18.206;2022-09-03T07:46:46;11.60;99.90
8684;DHT22;4379;59.744;18.206;2022-09-03T07:49:14;11.70;99.90
8684;DHT22;4379;59.744;18.206;2022-09-03T07:51:42;11.60;99.90
8684;DHT22;4379;59.744;18.206;2022-09-03T07:54:12;12.00;99.90
8684;DHT22;4379;59.744;18.206;2022-09-03T07:56:39;12.20;99.90
8684;DHT22;4379;59.744;18.206;2022-09-03T07:59:07;12.30;99.90
8684;DHT22;4379;59.744;18.206;2022-09-03T08:01:36;12.80;99.90
8684;DHT22;4379;59.744;18.206;2022-09-03T08:04:05;13.20;99.90
8684;DHT22;4379;59.744;18.206;2022-09-03T08:06:36;13.60;99.90
8684;DHT22;4379;59.744;18.206;2022-09-03T08:09:07;13.70;99.90
8684;DHT22;4379;59.744;18.206;2022-09-03T08:11:40;12.90;99.90
8684;DHT22;4379;59.744;18.206;2022-09-03T08:14:11;13.30;99.90
8684;DHT22;4379;59.744;18.206;2022-09-03T08:16:42;13.40;99.90
8684;DHT22;4379;59.744;18.206;2022-09-03T08:19:10;13.40;99.90
8684;DHT22;4379;59.744;18.206;2022-09-03T08:21:40;13.40;99.90
8684;DHT22;4379;59.744;18.206;2022-09-03T08:24:13;13.30;99.90
8684;DHT22;4379;59.744;18.206;2022-09-03T08:26:41;13.20;99.90
8684;DHT22;4379;59.744;18.206;2022-09-03T08:29:17;13.50;99.90
8684;DHT22;4379;59.744;18.206;2022-09-03T08:31:45;13.90;99.90
8684;DHT22;4379;59.744;18.206;2022-09-03T08:34:12;14.30;99.90
8684;DHT22;4379;59.744;18.206;2022-09-03T08:36:40;14.30;99.90
8684;DHT22;4379;59.744;18.206;2022-09-03T08:39:09;14.60;99.90
8684;DHT22;4379;59.744;18.206;2022-09-03T08:44:49;15.20;99.90
8684;DHT22;4379;59.744;18.206;2022-09-03T08:47:31;15.30;99.90
8684;DHT22;4379;59.744;18.206;2022-09-03T08:50:30;15.00;99.90
8684;DHT22;4379;59.744;18.206;2022-09-03T08:53:05;14.80;99.90
8684;DHT22;4379;59.744;18.206;2022-09-03T08:55:42;14.60;99.90
8684;DHT22;4379;59.744;18.206;2022-09-03T08:58:17;14.50;99.90
8684;DHT22;4379;59.744;18.206;2022-09-03T09:06:40;13.70;99.90
8684;DHT22;4379;59.744;18.206;2022-09-03T09:15:47;14.00;99.90
8684;DHT22;4379;59.744;18.206;2022-09-03T09:18:28;13.60;99.90
8684;DHT22;4379;59.744;18.206;2022-09-03T09:21:39;13.40;99.90
8684;DHT22;4379;59.744;18.206;2022-09-03T09:24:24;13.70;99.90
8684;DHT22;4379;59.744;18.206;2022-09-03T09:26:57;13.90;99.90
8684;DHT22;4379;59.744;18.206;2022-09-03T09:29:31;13.80;99.90
8684;DHT22;4379;59.744;18.206;2022-09-03T09:31:59;13.80;99.90
8684;DHT22;4379;59.744;18.206;2022-09-03T09:34:26;13.80;99.90
8684;DHT22;4379;59.744;18.206;2022-09-03T09:36:56;13.90;99.90
8684;DHT22;4379;59.744;18.206;2022-09-03T09:39:24;13.90;99.90
8684;DHT22;4379;59.744;18.206;2022-09-03T09:42:05;14.30;99.90
8684;DHT22;4379;59.744;18.206;2022-09-03T09:44:39;14.60;99.90
8684;DHT22;4379;59.744;18.206;2022-09-03T09:49:53;14.90;99.90
8684;DHT22;4379;59.744;18.206;2022-09-03T09:52:26;15.10;99.90
8684;DHT22;4379;59.744;18.206;2022-09-03T09:55:18;14.80;99.90
8684;DHT22;4379;59.744;18.206;2022-09-03T09:57:46;14.00;99.90
8684;DHT22;4379;59.744;18.206;2022-09-03T10:00:18;14.20;99.90
8684;DHT22;4379;59.744;18.206;2022-09-03T10:02:48;14.50;99.90
8684;DHT22;4379;59.744;18.206;2022-09-03T10:07:59;15.00;99.90
8684;DHT22;4379;59.744;18.206;2022-09-03T10:10:28;14.50;99.90
8684;DHT22;4379;59.744;18.206;2022-09-03T10:13:03;14.00;99.90
8684;DHT22;4379;59.744;18.206;2022-09-03T10:15:48;14.00;99.90
8684;DHT22;4379;59.744;18.206;2022-09-03T10:18:25;14.50;99.90
8684;DHT22;4379;59.744;18.206;2022-09-03T10:21:07;14.50;99.90
8684;DHT22;4379;59.744;18.206;2022-09-03T10:23:50;14.70;99.90
8684;DHT22;4379;59.744;18.206;2022-09-03T10:26:21;14.80;99.90
8684;DHT22;4379;59.744;18.206;2022-09-03T10:29:03;14.80;99.90
8684;DHT22;4379;59.744;18.206;2022-09-03T10:31:51;14.20;99.90
8684;DHT22;4379;59.744;18.206;2022-09-03T10:35:01;14.60;99.90
8684;DHT22;4379;59.744;18.206;2022-09-03T10:56:24;15.70;99.90
8684;DHT22;4379;59.744;18.206;2022-09-03T11:04:45;15.20;99.90
8684;DHT22;4379;59.744;18.206;2022-09-03T11:07:25;15.10;99.90
8684;DHT22;4379;59.744;18.206;2022-09-03T11:12:39;15.80;99.90
8684;DHT22;4379;59.744;18.206;2022-09-03T11:15:25;16.00;99.90
8684;DHT22;4379;59.744;18.206;2022-09-03T11:18:11;16.00;99.90
8684;DHT22;4379;59.744;18.206;2022-09-03T11:20:43;16.20;99.90
8684;DHT22;4379;59.744;18.206;2022-09-03T11:23:11;15.70;99.90
8684;DHT22;4379;59.744;18.206;2022-09-03T11:25:48;15.70;99.90
8684;DHT22;4379;59.744;18.206;2022-09-03T11:31:16;16.30;99.90
8684;DHT22;4379;59.744;18.206;2022-09-03T11:33:48;16.30;99.90
8684;DHT22;4379;59.744;18.206;2022-09-03T11:36:32;16.50;99.90
8684;DHT22;4379;59.744;18.206;2022-09-03T11:39:00;16.50;99.90
8684;DHT22;4379;59.744;18.206;2022-09-03T11:41:38;16.60;99.90
8684;DHT22;4379;59.744;18.206;2022-09-03T11:44:19;16.80;99.90
8684;DHT22;4379;59.744;18.206;2022-09-03T11:46:54;16.60;99.90
8684;DHT22;4379;59.744;18.206;2022-09-03T11:49:31;15.60;99.90
8684;DHT22;4379;59.744;18.206;2022-09-03T11:52:03;15.50;99.90
8684;DHT22;4379;59.744;18.206;2022-09-03T11:54:43;15.90;99.90
8684;DHT22;4379;59.744;18.206;2022-09-03T11:57:20;16.20;99.90
8684;DHT22;4379;59.744;18.206;2022-09-03T11:59:49;16.20;99.90
8684;DHT22;4379;59.744;18.206;2022-09-03T12:02:34;16.40;99.90
8684;DHT22;4379;59.744;18.206;2022-09-03T12:13:25;16.50;99.90
8684;DHT22;4379;59.744;18.206;2022-09-03T12:16:14;16.70;99.90
8684;DHT22;4379;59.744;18.206;2022-09-03T12:18:47;16.90;99.90
8684;DHT22;4379;59.744;18.206;2022-09-03T12:21:19;16.40;99.90
8684;DHT22;4379;59.744;18.206;2022-09-03T12:23:50;15.90;99.90
8684;DHT22;4379;59.744;18.206;2022-09-03T12:26:25;15.50;99.90
8684;DHT22;4379;59.744;18.206;2022-09-03T12:28:57;15.60;99.90
8684;DHT22;4379;59.744;18.206;2022-09-03T12:31:31;16.10;99.90
8684;DHT22;4379;59.744;18.206;2022-09-03T12:34:06;15.80;99.90
8684;DHT22;4379;59.744;18.206;2022-09-03T12:36:40;15.60;99.90
8684;DHT22;4379;59.744;18.206;2022-09-03T12:39:14;15.30;99.90
8684;DHT22;4379;59.744;18.206;2022-09-03T12:42:01;15.10;99.90
8684;DHT22;4379;59.744;18.206;2022-09-03T12:44:37;15.40;99.90
8684;DHT22;4379;59.744;18.206;2022-09-03T12:47:15;15.50;99.90
8684;DHT22;4379;59.744;18.206;2022-09-03T12:50:08;15.90;99.90
8684;DHT22;4379;59.744;18.206;2022-09-03T13:00:46;16.00;99.90
8684;DHT22;4379;59.744;18.206;2022-09-03T13:03:19;15.60;99.90
8684;DHT22;4379;59.744;18.206;2022-09-03T13:05:55;15.30;99.90
8684;DHT22;4379;59.744;18.206;2022-09-03T13:08:27;15.50;99.90
8684;DHT22;4379;59.744;18.206;2022-09-03T13:10:58;15.60;99.90
8684;DHT22;4379;59.744;18.206;2022-09-03T13:13:29;15.20;99.90
8684;DHT22;4379;59.744;18.206;2022-09-03T13:19:00;15.60;99.90
8684;DHT22;4379;59.744;18.206;2022-09-03T13:41:14;16.50;99.90
8684;DHT22;4379;59.744;18.206;2022-09-03T13:43:58;16.10;99.90
8684;DHT22;4379;59.744;18.206;2022-09-03T13:46:39;16.20;99.90
8684;DHT22;4379;59.744;18.206;2022-09-03T13:50:09;16.20;99.90
8684;DHT22;4379;59.744;18.206;2022-09-03T13:55:42;15.60;99.90
8684;DHT22;4379;59.744;18.206;2022-09-03T13:58:26;15.40;99.90
8684;DHT22;4379;59.744;18.206;2022-09-03T14:06:19;15.60;99.90
8684;DHT22;4379;59.744;18.206;2022-09-03T14:14:54;15.20;99.90
8684;DHT22;4379;59.744;18.206;2022-09-03T14:17:30;15.20;99.90
8684;DHT22;4379;59.744;18.206;2022-09-03T14:23:04;15.40;99.90
8684;DHT22;4379;59.744;18.206;2022-09-03T14:25:34;15.40;99.90
8684;DHT22;4379;59.744;18.206;2022-09-03T14:28:27;14.90;99.90
8684;DHT22;4379;59.744;18.206;2022-09-03T14:31:18;14.70;99.90
8684;DHT22;4379;59.744;18.206;2022-09-03T14:36:36;14.40;99.90
8684;DHT22;4379;59.744;18.206;2022-09-03T14:42:26;14.40;99.90
8684;DHT22;4379;59.744;18.206;2022-09-03T14:45:42;14.60;99.90
8684;DHT22;4379;59.744;18.206;2022-09-03T15:00:00;14.70;99.90
8684;DHT22;4379;59.744;18.206;2022-09-03T15:05:11;14.60;99.90
8684;DHT22;4379;59.744;18.206;2022-09-03T15:10:49;14.80;99.90
8684;DHT22;4379;59.744;18.206;2022-09-03T15:13:41;14.80;99.90
8684;DHT22;4379;59.744;18.206;2022-09-03T15:16:34;14.50;99.90
8684;DHT22;4379;59.744;18.206;2022-09-03T15:30:46;13.70;99.90
8684;DHT22;4379;59.744;18.206;2022-09-03T15:36:19;13.30;99.90
8684;DHT22;4379;59.744;18.206;2022-09-03T15:38:54;13.30;99.90
8684;DHT22;4379;59.744;18.206;2022-09-03T15:44:14;13.10;99.90
8684;DHT22;4379;59.744;18.206;2022-09-03T15:46:50;12.90;99.90
8684;DHT22;4379;59.744;18.206;2022-09-03T15:49:28;13.00;99.90
8684;DHT22;4379;59.744;18.206;2022-09-03T15:54:55;13.20;99.90
8684;DHT22;4379;59.744;18.206;2022-09-03T15:57:49;13.20;99.90
8684;DHT22;4379;59.744;18.206;2022-09-03T16:00:21;13.00;99.90
8684;DHT22;4379;59.744;18.206;2022-09-03T16:03:08;13.00;99.90
8684;DHT22;4379;59.744;18.206;2022-09-03T16:05:57;13.00;99.90
8684;DHT22;4379;59.744;18.206;2022-09-03T16:08:37;13.10;99.90
8684;DHT22;4379;59.744;18.206;2022-09-03T16:11:35;12.90;99.90
8684;DHT22;4379;59.744;18.206;2022-09-03T16:14:09;13.00;99.90
8684;DHT22;4379;59.744;18.206;2022-09-03T16:22:15;12.80;99.90
8684;DHT22;4379;59.744;18.206;2022-09-03T16:25:08;12.90;99.90
8684;DHT22;4379;59.744;18.206;2022-09-03T16:28:12;12.80;99.90
8684;DHT22;4379;59.744;18.206;2022-09-03T16:39:27;12.70;99.90
8684;DHT22;4379;59.744;18.206;2022-09-03T16:48:13;12.60;99.90
8684;DHT22;4379;59.744;18.206;2022-09-03T16:54:46;12.50;99.90
8684;DHT22;4379;59.744;18.206;2022-09-03T17:00:21;12.50;99.90
8684;DHT22;4379;59.744;18.206;2022-09-03T17:12:15;11.90;99.90
8684;DHT22;4379;59.744;18.206;2022-09-03T17:15:02;11.80;99.90
8684;DHT22;4379;59.744;18.206;2022-09-03T17:26:09;11.30;99.90
8684;DHT22;4379;59.744;18.206;2022-09-03T17:45:48;11.10;99.90
8684;DHT22;4379;59.744;18.206;2022-09-03T17:48:45;10.90;99.90
8684;DHT22;4379;59.744;18.206;2022-09-03T17:51:26;10.90;99.90
8684;DHT22;4379;59.744;18.206;2022-09-03T17:54:06;10.70;99.90
8684;DHT22;4379;59.744;18.206;2022-09-03T17:56:46;10.40;99.90
8684;DHT22;4379;59.744;18.206;2022-09-03T18:00:28;10.30;99.90
8684;DHT22;4379;59.744;18.206;2022-09-03T18:11:40;10.20;99.90
8684;DHT22;4379;59.744;18.206;2022-09-03T18:17:04;9.80;99.90
8684;DHT22;4379;59.744;18.206;2022-09-03T18:19:48;9.80;99.90
8684;DHT22;4379;59.744;18.206;2022-09-03T18:23:13;9.90;99.90
8684;DHT22;4379;59.744;18.206;2022-09-03T18:26:20;10.10;99.90
8684;DHT22;4379;59.744;18.206;2022-09-03T18:29:15;9.80;99.90
8684;DHT22;4379;59.744;18.206;2022-09-03T18:32:04;9.90;99.90
8684;DHT22;4379;59.744;18.206;2022-09-03T18:34:50;10.00;99.90
8684;DHT22;4379;59.744;18.206;2022-09-03T18:37:37;10.00;99.90
8684;DHT22;4379;59.744;18.206;2022-09-03T18:40:36;9.90;99.90
8684;DHT22;4379;59.744;18.206;2022-09-03T18:44:11;9.50;99.90
8684;DHT22;4379;59.744;18.206;2022-09-03T18:53:44;9.30;99.90
8684;DHT22;4379;59.744;18.206;2022-09-03T18:59:58;8.90;99.90
8684;DHT22;4379;59.744;18.206;2022-09-03T19:06:11;8.90;99.90
8684;DHT22;4379;59.744;18.206;2022-09-03T19:12:28;8.80;99.90
8684;DHT22;4379;59.744;18.206;2022-09-03T19:15:29;8.60;99.90
8684;DHT22;4379;59.744;18.206;2022-09-03T19:21:51;8.20;99.90
8684;DHT22;4379;59.744;18.206;2022-09-03T19:24:38;8.00;99.90
8684;DHT22;4379;59.744;18.206;2022-09-03T19:27:43;8.00;99.90
8684;DHT22;4379;59.744;18.206;2022-09-03T19:31:10;7.90;99.90
8684;DHT22;4379;59.744;18.206;2022-09-03T19:34:08;7.90;99.90
8684;DHT22;4379;59.744;18.206;2022-09-03T19:43:24;8.00;99.90
8684;DHT22;4379;59.744;18.206;2022-09-03T19:46:21;7.90;99.90
8684;DHT22;4379;59.744;18.206;2022-09-03T19:55:37;8.10;99.90
8684;DHT22;4379;59.744;18.206;2022-09-03T19:58:26;7.90;99.90
8684;DHT22;4379;59.744;18.206;2022-09-03T20:01:14;7.60;99.90
8684;DHT22;4379;59.744;18.206;2022-09-03T20:04:11;7.50;99.90
8684;DHT22;4379;59.744;18.206;2022-09-03T20:06:59;7.50;99.90
8684;DHT22;4379;59.744;18.206;2022-09-03T20:09:47;7.40;99.90
8684;DHT22;4379;59.744;18.206;2022-09-03T20:12:41;7.30;99.90
8684;DHT22;4379;59.744;18.206;2022-09-03T20:15:09;7.30;99.90
8684;DHT22;4379;59.744;18.206;2022-09-03T20:17:48;7.30;99.90
8684;DHT22;4379;59.744;18.206;2022-09-03T20:23:03;7.20;99.90
8684;DHT22;4379;59.744;18.206;2022-09-03T20:31:14;7.20;99.90
8684;DHT22;4379;59.744;18.206;2022-09-03T20:37:07;7.10;99.90
8684;DHT22;4379;59.744;18.206;2022-09-03T20:43:23;7.10;99.90
8684;DHT22;4379;59.744;18.206;2022-09-03T20:49:07;7.00;99.90
8684;DHT22;4379;59.744;18.206;2022-09-03T20:51:24;6.70;99.90
8684;DHT22;4379;59.744;18.206;2022-09-03T20:54:18;6.50;99.90
8684;DHT22;4379;59.744;18.206;2022-09-03T21:00:02;6.10;99.90
8684;DHT22;4379;59.744;18.206;2022-09-03T21:02:41;6.00;99.90
8684;DHT22;4379;59.744;18.206;2022-09-03T21:08:16;5.80;99.90
8684;DHT22;4379;59.744;18.206;2022-09-03T21:11:07;5.70;99.90
8684;DHT22;4379;59.744;18.206;2022-09-03T21:13:53;5.70;99.90
8684;DHT22;4379;59.744;18.206;2022-09-03T21:16:35;5.60;99.90
8684;DHT22;4379;59.744;18.206;2022-09-03T21:19:29;5.60;99.90
8684;DHT22;4379;59.744;18.206;2022-09-03T21:25:01;5.40;99.90
8684;DHT22;4379;59.744;18.206;2022-09-03T21:28:40;5.40;99.90
8684;DHT22;4379;59.744;18.206;2022-09-03T21:30:55;5.30;99.90
8684;DHT22;4379;59.744;18.206;2022-09-03T21:33:30;5.20;99.90
8684;DHT22;4379;59.744;18.206;2022-09-03T21:36:09;5.20;99.90
8684;DHT22;4379;59.744;18.206;2022-09-03T21:38:46;5.10;99.90
8684;DHT22;4379;59.744;18.206;2022-09-03T21:41:30;5.20;99.90
8684;DHT22;4379;59.744;18.206;2022-09-03T21:44:16;5.30;99.90
8684;DHT22;4379;59.744;18.206;2022-09-03T21:49:24;5.20;99.90
8684;DHT22;4379;59.744;18.206;2022-09-03T21:52:03;5.30;99.90
8684;DHT22;4379;59.744;18.206;2022-09-03T21:54:33;5.10;99.90
8684;DHT22;4379;59.744;18.206;2022-09-03T21:57:11;5.20;99.90
8684;DHT22;4379;59.744;18.206;2022-09-03T22:00:08;5.00;99.90
8684;DHT22;4379;59.744;18.206;2022-09-03T22:02:35;5.00;99.90
8684;DHT22;4379;59.744;18.206;2022-09-03T22:05:04;4.90;99.90
8684;DHT22;4379;59.744;18.206;2022-09-03T22:08:02;4.90;99.90
8684;DHT22;4379;59.744;18.206;2022-09-03T22:16:00;5.10;99.90
8684;DHT22;4379;59.744;18.206;2022-09-03T22:18:31;5.20;99.90
8684;DHT22;4379;59.744;18.206;2022-09-03T22:24:18;5.10;99.90
8684;DHT22;4379;59.744;18.206;2022-09-03T22:27:13;5.10;99.90
8684;DHT22;4379;59.744;18.206;2022-09-03T22:32:48;5.20;99.90
8684;DHT22;4379;59.744;18.206;2022-09-03T22:38:00;5.30;99.90
8684;DHT22;4379;59.744;18.206;2022-09-03T22:40:41;5.40;99.90
8684;DHT22;4379;59.744;18.206;2022-09-03T22:43:36;5.30;99.90
8684;DHT22;4379;59.744;18.206;2022-09-03T22:46:15;5.50;99.90
8684;DHT22;4379;59.744;18.206;2022-09-03T22:51:11;5.60;99.90
8684;DHT22;4379;59.744;18.206;2022-09-03T22:56:49;5.70;99.90